Lowell Highlands, MA

10 Minute Time Series

17-Oct-2018 08:00 AM

TimeTempHumidityDewpointBarometerWindSpeedWindGustWind DirRain
17-Oct-2018 12:10 AM41.2°F84%36.7°F29.991 inHg0 mph1 mph N/A (N/A)0.00 in
17-Oct-2018 12:20 AM41.1°F84%36.6°F29.986 inHg0 mph1 mph N/A (N/A)0.00 in
17-Oct-2018 12:30 AM40.9°F84%36.4°F29.980 inHg0 mph0 mph N/A (N/A)0.00 in
17-Oct-2018 12:40 AM40.8°F85%36.6°F29.980 inHg0 mph1 mph N/A (N/A)0.00 in
17-Oct-2018 12:50 AM40.6°F85%36.4°F29.979 inHg0 mph2 mph N/A (N/A)0.00 in
17-Oct-2018 01:00 AM40.4°F86%36.5°F29.980 inHg0 mph2 mph N/A (N/A)0.00 in
17-Oct-2018 01:10 AM40.1°F87%36.5°F29.978 inHg0 mph2 mph N/A (N/A)0.00 in
17-Oct-2018 01:20 AM39.9°F87%36.4°F29.977 inHg1 mph2 mph180° (S)0.00 in
17-Oct-2018 01:30 AM39.7°F87%36.2°F29.972 inHg0 mph2 mph N/A (N/A)0.00 in
17-Oct-2018 01:40 AM39.6°F87%36.1°F29.970 inHg0 mph1 mph N/A (N/A)0.00 in
17-Oct-2018 01:50 AM39.5°F88%36.2°F29.970 inHg0 mph1 mph N/A (N/A)0.00 in
17-Oct-2018 02:00 AM39.3°F88%36.0°F29.968 inHg0 mph1 mph N/A (N/A)0.00 in
17-Oct-2018 02:10 AM39.1°F89%36.1°F29.964 inHg0 mph1 mph N/A (N/A)0.00 in
17-Oct-2018 02:20 AM38.9°F89%35.9°F29.957 inHg1 mph3 mph158° (SSE)0.00 in
17-Oct-2018 02:30 AM38.8°F89%35.8°F29.955 inHg1 mph2 mph158° (SSE)0.00 in
17-Oct-2018 02:40 AM38.6°F90%35.9°F29.957 inHg1 mph3 mph158° (SSE)0.00 in
17-Oct-2018 02:50 AM38.6°F90%35.9°F29.954 inHg1 mph2 mph158° (SSE)0.00 in
17-Oct-2018 03:00 AM38.4°F90%35.7°F29.951 inHg0 mph1 mph N/A (N/A)0.00 in
17-Oct-2018 03:10 AM38.3°F90%35.6°F29.952 inHg0 mph2 mph N/A (N/A)0.00 in
17-Oct-2018 03:20 AM38.1°F90%35.4°F29.949 inHg1 mph3 mph158° (SSE)0.00 in
17-Oct-2018 03:30 AM37.9°F91%35.5°F29.947 inHg0 mph2 mph N/A (N/A)0.00 in
17-Oct-2018 03:40 AM37.9°F91%35.5°F29.947 inHg1 mph3 mph158° (SSE)0.00 in
17-Oct-2018 03:50 AM37.9°F91%35.5°F29.947 inHg1 mph2 mph180° (S)0.00 in
17-Oct-2018 04:00 AM37.8°F91%35.4°F29.943 inHg1 mph3 mph180° (S)0.00 in
17-Oct-2018 04:10 AM37.9°F91%35.5°F29.938 inHg2 mph4 mph180° (S)0.00 in
17-Oct-2018 04:20 AM37.9°F91%35.5°F29.934 inHg1 mph3 mph180° (S)0.00 in
17-Oct-2018 04:30 AM37.9°F91%35.5°F29.931 inHg1 mph2 mph180° (S)0.00 in
17-Oct-2018 04:40 AM37.6°F91%35.2°F29.930 inHg2 mph4 mph180° (S)0.00 in
17-Oct-2018 04:50 AM37.4°F92%35.3°F29.931 inHg1 mph2 mph158° (SSE)0.00 in
17-Oct-2018 05:00 AM37.1°F92%35.0°F29.932 inHg1 mph2 mph158° (SSE)0.00 in
17-Oct-2018 05:10 AM36.9°F92%34.8°F29.930 inHg1 mph2 mph158° (SSE)0.00 in
17-Oct-2018 05:20 AM36.8°F92%34.7°F29.929 inHg1 mph2 mph158° (SSE)0.00 in
17-Oct-2018 05:30 AM36.8°F93%35.0°F29.923 inHg1 mph2 mph158° (SSE)0.00 in
17-Oct-2018 05:40 AM36.9°F93%35.1°F29.923 inHg1 mph3 mph158° (SSE)0.00 in
17-Oct-2018 05:50 AM37.2°F93%35.4°F29.915 inHg1 mph3 mph180° (S)0.00 in
17-Oct-2018 06:00 AM37.5°F93%35.7°F29.913 inHg1 mph3 mph180° (S)0.00 in
17-Oct-2018 06:10 AM37.6°F93%35.8°F29.911 inHg1 mph2 mph180° (S)0.00 in
17-Oct-2018 06:20 AM37.7°F93%35.9°F29.906 inHg1 mph2 mph180° (S)0.00 in
17-Oct-2018 06:30 AM37.7°F93%35.9°F29.906 inHg1 mph2 mph158° (SSE)0.00 in
17-Oct-2018 06:40 AM37.8°F93%36.0°F29.901 inHg1 mph3 mph225° (SW)0.00 in
17-Oct-2018 06:50 AM37.8°F93%36.0°F29.899 inHg1 mph6 mph158° (SSE)0.00 in
17-Oct-2018 07:00 AM37.7°F92%35.6°F29.897 inHg1 mph3 mph158° (SSE)0.00 in
17-Oct-2018 07:10 AM37.6°F92%35.5°F29.900 inHg1 mph3 mph202° (SSW)0.00 in
17-Oct-2018 07:20 AM37.5°F92%35.4°F29.897 inHg1 mph3 mph180° (S)0.00 in
17-Oct-2018 07:30 AM37.7°F93%35.9°F29.888 inHg2 mph5 mph180° (S)0.00 in
17-Oct-2018 07:40 AM38.0°F93%36.2°F29.887 inHg1 mph4 mph180° (S)0.00 in
17-Oct-2018 07:50 AM38.4°F92%36.3°F29.889 inHg1 mph4 mph180° (S)0.00 in
17-Oct-2018 08:00 AM38.8°F92%36.7°F29.885 inHg1 mph3 mph202° (SSW)0.00 in